ENAL/AES METAR and TAF weather

Enter ICAO airport designator
Station Type Date Time Source
ENAL METAR 2020/02/29 03:50 UTC NOAA

ENAL 290350Z AUTO 07017KT 9999 SCT017/// 00/M02 Q0997


Station Type Date Time Source
ENAL Decoded METAR 2020/02/29 03:50 UTC NOAA

Alesund / Vigra, Norway (ENAL) 62-34N 006-07E 22M
Feb 28, 2020 - 10:50 PM EST / 2020.02.29 0350 UTC
Wind: from the ENE (070 degrees) at 20 MPH (17 KT):0
Visibility: greater than 7 mile(s):0
Sky conditions: partly cloudy
Temperature: 32 F (0 C)
Windchill: 19 F (-7 C):1
Dew Point: 28 F (-2 C)
Relative Humidity: 86%
Pressure (altimeter): 29.44 in. Hg (0997 hPa)
ob: ENAL 290350Z AUTO 07017KT 9999 SCT017/// 00/M02 Q0997
cycle: 4

Station Type Date Time Source
ENAL TAF UTC NOAA

Error!

Example: see airport list